Detall de PIREP

Printer-friendly versionPDF version

[2012/04/13 16:00:00]
Flight IATA:CT1026
Pilot Number:042
Company ICAO:CAT
Aircraft Type:B738/F
PAX:0
Departing Airport: BIKF
Destination Airport: LEBL
Alternate Airport:LEPA
Online: VATSIM
Route:CELLO DCT AGORI DCT LEDGO UN160 LND UM142 BERAD UN490 TERPO UM616 TUPAR UM184 CNA UN863 AGN UN727 ROCAN UN859 PUMAL
Flight Level:F350
No Slew and time accel
No pause
Crash detect
Detect pilot in Cockpit between each 30 and 45 minutes
16:00 Zero fuel Weight: 91659 Lbs, Fuel Weight: 46049 Lbs
16:00 VATSIM:BIKF 131530Z 06005KT 9999 VCSH FEW024CB BKN036 05/00 Q1021
16:00 VATSIM:LEBL 131530Z 22018KT 9999 FEW020 SCT050 16/09 Q1001 NOSIG
16:00 VOICE CATALONIAN/BOEING TRANSPORT
16:02 Parking Brakes off
16:12 Take-off
16:12 Take off Weight: 136660 Lbs
16:12 Wind: 020º @ 000 Knots Heading: 090º
16:12 POS N63º 59´ 06´´ W022º 37´ 07´´
16:12 Gear Up: 164 Knots
16:12 Flaps:5 at 164 Knots
16:13 Flaps:4 at 157 Knots
16:13 Flaps:3 at 165 Knots
16:13 Flaps:2 at 190 Knots
16:14 Flaps:1 at 217 Knots
16:14 Flaps:0 at 219 Knots
16:27 Wind:312º@019 Knots Heading: 147º Ground Speed: 471 Knots Altitude 30780 ft
16:29 TOC
16:29 Fuel Weight: 41452 Lb
16:42 Wind:290º@019 Knots Heading: 147º Ground Speed: 456 Knots Altitude 35226 ft
16:57 Wind:290º@019 Knots Heading: 142º Ground Speed: 458 Knots Altitude 35157 ft
17:04 TOD
17:04 Fuel Weight: 38281 Lb
17:04 TOC
17:04 Fuel Weight: 38276 Lb
17:06 TOD
17:06 Fuel Weight: 38090 Lb
17:06 TOC
17:06 Fuel Weight: 38084 Lb
17:10 TOD
17:10 Fuel Weight: 37771 Lb
17:10 TOC
17:10 Fuel Weight: 37765 Lb
17:12 Wind:315º@018 Knots Heading: 142º Ground Speed: 465 Knots Altitude 34921 ft
17:13 TOD
17:13 Fuel Weight: 37473 Lb
17:13 TOC
17:13 Fuel Weight: 37470 Lb
17:14 TOD
17:14 Fuel Weight: 37377 Lb
17:14 TOC
17:14 Fuel Weight: 37373 Lb
17:27 Wind:301º@039 Knots Heading: 158º Ground Speed: 478 Knots Altitude 34842 ft
17:42 Wind:305º@032 Knots Heading: 151º Ground Speed: 477 Knots Altitude 34799 ft
17:58 Wind:314º@021 Knots Heading: 150º Ground Speed: 471 Knots Altitude 34760 ft
18:13 Wind:306º@010 Knots Heading: 151º Ground Speed: 456 Knots Altitude 34753 ft
18:28 Wind:313º@019 Knots Heading: 150º Ground Speed: 466 Knots Altitude 34730 ft
18:43 Wind:300º@019 Knots Heading: 133º Ground Speed: 464 Knots Altitude 34737 ft
18:58 Wind:286º@018 Knots Heading: 141º Ground Speed: 463 Knots Altitude 34727 ft
19:13 Wind:260º@015 Knots Heading: 157º Ground Speed: 454 Knots Altitude 34757 ft
19:28 Wind:251º@017 Knots Heading: 138º Ground Speed: 453 Knots Altitude 34780 ft
19:38 TOD
19:38 Fuel Weight: 25031 Lb
19:43 Wind:217º@018 Knots Heading: 170º Ground Speed: 373 Knots Altitude 24015 ft
19:53 Flaps:1 at 245 Knots
19:54 Flaps:2 at 231 Knots
19:55 Flaps:3 at 227 Knots
19:56 Flaps:4 at 219 Knots
19:58 Wind:310º@029 Knots Heading: 176º Ground Speed: 212 Knots Altitude 4225 ft
20:03 Gear Down: 161 Knots
20:03 Flaps:5 at 161 Knots
20:03 Flaps:6 at 161 Knots
20:03 Flaps:7 at 159 Knots
20:04 Flaps:8 at 152 Knots
20:09 TouchDown:Rate -330 ft/min Speed: 104 Knots
20:09 VATSIM:LEBL 132000Z 07008KT 9999 SCT025 14/10 Q1004 NOSIG
20:09 Land
20:09 Wind:082º@012 Knots
20:09 Heading: 065º
20:09 Flight Duration: 03:57
20:09 Landing Weight: 114833 Lbs
20:09 POS N41º 17´ 57´´ E002º 05´ 07´´
20:11 Parking brakes on
20:11 Block to Block Duration: 04:09
20:11 Final Fuel: 23075 Lbls
20:11 Spent Fuel: 22974 Lbls
20:11 Flight Length: 1456 NM
20:11 TOD Land Length: 133 NM

Exportar CSV

Powered by Drupal - Modified by Danger4k